createdAt,value
2023-03-03T00:01:20.423Z,124.30
2023-03-03T00:03:48.483Z,131.10
2023-03-03T00:06:16.856Z,121.20
2023-03-03T00:08:46.111Z,129.70
2023-03-03T00:11:14.263Z,118.30
2023-03-03T00:13:54.388Z,118.10
2023-03-03T00:16:26.132Z,119.40
2023-03-03T00:18:55.338Z,125.10
2023-03-03T00:21:32.603Z,116.60
2023-03-03T00:24:17.122Z,118.30
2023-03-03T00:27:09.565Z,114.20
2023-03-03T00:29:41.487Z,116.80
2023-03-03T00:34:45.059Z,112.10
2023-03-03T00:37:35.932Z,110.70
2023-03-03T00:40:21.468Z,112.90
2023-03-03T00:42:52.863Z,124.60
2023-03-03T00:45:27.363Z,116.00
2023-03-03T00:47:56.721Z,117.30
2023-03-03T00:50:35.427Z,120.70
2023-03-03T00:53:05.501Z,118.90
2023-03-03T00:55:35.478Z,127.30
2023-03-03T00:58:04.722Z,124.00
2023-03-03T01:00:37.164Z,124.30
2023-03-03T01:03:14.705Z,117.90
2023-03-03T01:05:43.274Z,117.90
2023-03-03T01:08:11.847Z,118.80
2023-03-03T01:10:45.107Z,123.10
2023-03-03T01:13:13.340Z,131.40
2023-03-03T01:15:41.465Z,123.20
2023-03-03T01:18:11.811Z,120.90
2023-03-03T01:20:40.426Z,110.20
2023-03-03T01:23:09.187Z,117.80
2023-03-03T01:25:37.639Z,124.10
2023-03-03T01:28:06.618Z,123.30
2023-03-03T01:30:35.166Z,125.80
2023-03-03T01:33:03.466Z,110.80
2023-03-03T01:35:31.722Z,119.30
2023-03-03T01:37:59.673Z,120.70
2023-03-03T01:40:31.018Z,118.30
2023-03-03T01:43:00.948Z,105.20
2023-03-03T01:45:42.795Z,124.40
2023-03-03T01:51:11.437Z,122.40
2023-03-03T01:53:46.903Z,126.70
2023-03-03T01:56:16.812Z,120.40
2023-03-03T01:59:01.818Z,120.00
2023-03-03T02:01:31.914Z,108.70
2023-03-03T02:04:00.624Z,119.30
2023-03-03T02:06:35.807Z,122.60
2023-03-03T02:09:14.685Z,133.20
2023-03-03T02:11:45.644Z,118.90
2023-03-03T02:14:13.980Z,121.90
2023-03-03T02:16:44.983Z,113.60
2023-03-03T02:19:28.205Z,113.00
2023-03-03T02:21:56.307Z,112.90
2023-03-03T02:24:43.303Z,118.80
2023-03-03T02:27:11.648Z,118.00
2023-03-03T02:29:40.179Z,116.40
2023-03-03T02:32:08.582Z,110.10
2023-03-03T02:34:51.801Z,106.70
2023-03-03T02:37:20.837Z,115.40
2023-03-03T02:39:48.955Z,111.00
2023-03-03T02:42:24.147Z,102.40
2023-03-03T02:44:55.445Z,105.10
2023-03-03T02:47:23.577Z,108.70
2023-03-03T02:49:51.626Z,114.60
2023-03-03T02:52:19.684Z,111.20
2023-03-03T02:54:48.351Z,113.10
2023-03-03T02:57:16.313Z,114.40
2023-03-03T02:59:44.491Z,117.20
2023-03-03T03:02:14.606Z,109.50
2023-03-03T03:04:43.455Z,117.90
2023-03-03T03:07:11.993Z,115.70
2023-03-03T03:09:40.814Z,116.40
2023-03-03T03:12:08.913Z,113.70
2023-03-03T03:14:38.260Z,107.40
2023-03-03T03:17:07.313Z,121.80
2023-03-03T03:19:35.396Z,120.70
2023-03-03T03:22:04.183Z,119.70
2023-03-03T03:24:33.853Z,119.70
2023-03-03T03:27:04.877Z,121.40
2023-03-03T03:29:33.833Z,119.50
2023-03-03T03:32:02.776Z,122.60
2023-03-03T03:34:31.313Z,123.40
2023-03-03T03:36:59.863Z,110.60
2023-03-03T03:39:28.582Z,131.50
2023-03-03T03:41:57.836Z,127.10
2023-03-03T03:44:26.264Z,128.50
2023-03-03T03:46:55.287Z,106.00
2023-03-03T03:49:23.377Z,134.80
2023-03-03T03:51:52.350Z,126.30
2023-03-03T03:54:21.981Z,129.10
2023-03-03T03:57:15.802Z,126.50
2023-03-03T03:59:45.416Z,117.30
2023-03-03T04:05:33.164Z,121.40
2023-03-03T04:08:02.060Z,129.00
2023-03-03T04:10:30.258Z,119.10
2023-03-03T04:12:59.158Z,137.50
2023-03-03T04:15:27.200Z,130.60
2023-03-03T04:17:55.961Z,133.50
2023-03-03T04:20:24.652Z,124.80
2023-03-03T04:22:54.130Z,143.60
2023-03-03T04:25:22.323Z,139.70
2023-03-03T04:27:52.999Z,131.60
2023-03-03T04:34:37.372Z,136.70
2023-03-03T04:37:05.431Z,115.40
2023-03-03T04:39:33.649Z,118.90
2023-03-03T04:42:01.586Z,128.20
2023-03-03T04:44:30.160Z,121.40
2023-03-03T04:46:58.357Z,138.50
2023-03-03T04:49:27.115Z,135.40
2023-03-03T04:51:55.685Z,126.80
2023-03-03T04:54:24.448Z,139.00
2023-03-03T04:56:52.579Z,128.60
2023-03-03T04:59:20.651Z,133.50
2023-03-03T05:01:51.135Z,115.00
2023-03-03T05:04:19.462Z,125.90
2023-03-03T05:06:47.499Z,121.70
2023-03-03T05:09:15.488Z,124.70
2023-03-03T05:11:43.490Z,130.70
2023-03-03T05:14:12.575Z,130.70
2023-03-03T05:16:40.767Z,137.70
2023-03-03T05:19:08.792Z,127.60
2023-03-03T05:21:37.887Z,145.90
2023-03-03T05:24:06.075Z,135.30
2023-03-03T05:26:34.838Z,134.70
2023-03-03T05:29:03.338Z,149.20
2023-03-03T05:31:31.426Z,145.90
2023-03-03T05:33:59.744Z,143.00
2023-03-03T05:36:28.328Z,145.60
2023-03-03T05:38:56.382Z,144.70
2023-03-03T05:41:24.482Z,144.40
2023-03-03T05:43:52.623Z,143.80
2023-03-03T05:46:20.636Z,154.70
2023-03-03T05:48:48.620Z,138.00
2023-03-03T05:51:16.566Z,140.60
2023-03-03T05:53:44.574Z,142.50
2023-03-03T05:56:12.592Z,141.00
2023-03-03T05:58:40.573Z,151.40
2023-03-03T06:01:08.507Z,137.30
2023-03-03T06:03:36.469Z,122.70
2023-03-03T06:06:04.692Z,121.00
2023-03-03T06:08:32.921Z,135.00
2023-03-03T06:11:01.133Z,123.80
2023-03-03T06:13:30.420Z,120.30
2023-03-03T06:15:58.393Z,109.10
2023-03-03T06:18:26.565Z,131.60
2023-03-03T06:20:55.417Z,109.10
2023-03-03T06:23:23.682Z,126.70
2023-03-03T06:25:51.824Z,124.50
2023-03-03T06:28:20.005Z,108.30
2023-03-03T06:30:48.309Z,115.10
2023-03-03T06:33:16.386Z,111.20
2023-03-03T06:35:44.403Z,119.30
2023-03-03T06:38:12.361Z,128.00
2023-03-03T06:40:40.455Z,99.10
2023-03-03T06:43:09.671Z,109.00
2023-03-03T06:45:37.741Z,109.80
2023-03-03T06:48:06.243Z,99.60
2023-03-03T06:50:35.063Z,113.30
2023-03-03T06:53:12.061Z,102.40
2023-03-03T06:55:41.253Z,115.90
2023-03-03T06:58:18.546Z,113.90
2023-03-03T07:00:54.853Z,111.20
2023-03-03T07:03:25.827Z,114.30
2023-03-03T07:05:54.593Z,97.00
2023-03-03T07:08:30.961Z,120.00
2023-03-03T07:11:16.510Z,117.60
2023-03-03T07:13:47.809Z,103.60
2023-03-03T07:16:17.547Z,105.00
2023-03-03T07:19:04.793Z,114.30
2023-03-03T07:21:38.861Z,114.10
2023-03-03T07:24:25.427Z,69.00
2023-03-03T07:26:59.195Z,99.20
2023-03-03T07:29:30.670Z,99.30
2023-03-03T07:32:00.297Z,107.60
2023-03-03T07:34:47.904Z,117.90
2023-03-03T07:37:38.979Z,103.00
2023-03-03T07:40:35.256Z,105.80
2023-03-03T07:43:28.544Z,103.20
2023-03-03T07:46:21.822Z,121.80
2023-03-03T07:48:52.167Z,109.20
2023-03-03T07:51:39.678Z,108.80
2023-03-03T07:54:17.196Z,110.40
2023-03-03T07:56:45.824Z,110.30
2023-03-03T07:59:25.975Z,100.30
2023-03-03T08:01:58.308Z,108.30
2023-03-03T08:04:39.596Z,114.30
2023-03-03T08:07:16.710Z,111.30
2023-03-03T08:09:47.254Z,95.20
2023-03-03T08:12:43.047Z,94.50
2023-03-03T08:15:19.579Z,97.90
2023-03-03T08:17:49.005Z,103.00
2023-03-03T08:20:29.344Z,105.40
2023-03-03T08:22:57.420Z,97.60
2023-03-03T08:25:25.372Z,99.60
2023-03-03T08:27:53.546Z,115.00
2023-03-03T08:30:21.616Z,101.70
2023-03-03T08:32:49.843Z,106.00
2023-03-03T08:35:17.799Z,105.30
2023-03-03T08:37:45.933Z,98.40
2023-03-03T08:40:14.033Z,99.40
2023-03-03T08:42:42.010Z,90.30
2023-03-03T08:45:10.901Z,78.70
2023-03-03T08:47:39.577Z,89.90
2023-03-03T08:50:08.029Z,88.40
2023-03-03T08:52:36.058Z,93.80
2023-03-03T08:55:08.879Z,95.70
2023-03-03T08:57:37.279Z,84.80
2023-03-03T09:00:09.135Z,91.80
2023-03-03T09:05:24.326Z,86.60
2023-03-03T09:07:53.600Z,82.90
2023-03-03T09:10:27.752Z,84.00
2023-03-03T09:12:59.023Z,85.70
2023-03-03T09:15:31.025Z,81.10
2023-03-03T09:18:14.296Z,76.10
2023-03-03T09:20:47.774Z,84.10
2023-03-03T09:23:34.069Z,85.60
2023-03-03T09:26:47.522Z,87.90
2023-03-03T09:29:15.471Z,102.00
2023-03-03T09:31:52.049Z,88.20
2023-03-03T09:34:39.898Z,74.30
2023-03-03T09:37:17.249Z,82.80
2023-03-03T09:39:48.789Z,78.00
2023-03-03T09:42:42.992Z,87.80
2023-03-03T09:45:43.707Z,84.20
2023-03-03T09:48:14.807Z,83.60
2023-03-03T09:51:02.496Z,65.40
2023-03-03T09:53:52.260Z,76.60
2023-03-03T09:56:35.780Z,74.40
2023-03-03T09:59:37.317Z,77.70
2023-03-03T10:02:11.465Z,78.90
2023-03-03T10:04:58.070Z,79.60
2023-03-03T10:08:03.451Z,74.10
2023-03-03T10:10:43.797Z,72.60
2023-03-03T10:13:17.878Z,77.60
2023-03-03T10:16:10.842Z,80.70
2023-03-03T10:18:52.922Z,71.10
2023-03-03T10:24:36.695Z,78.50
2023-03-03T10:27:36.129Z,76.60
2023-03-03T10:30:04.263Z,74.30
2023-03-03T10:32:32.613Z,83.10
2023-03-03T10:35:14.860Z,78.80
2023-03-03T10:38:05.282Z,78.50
2023-03-03T10:40:43.758Z,75.90
2023-03-03T10:43:32.426Z,75.40
2023-03-03T10:46:22.065Z,83.00
2023-03-03T10:49:21.262Z,84.80
2023-03-03T10:52:26.617Z,83.60
2023-03-03T10:55:12.946Z,82.80
2023-03-03T10:58:08.432Z,81.70
2023-03-03T11:05:02.473Z,79.70
2023-03-03T11:07:46.508Z,78.50
2023-03-03T11:10:39.622Z,76.70
2023-03-03T11:13:42.239Z,79.70
2023-03-03T11:16:58.935Z,79.20
2023-03-03T11:19:53.586Z,88.50
2023-03-03T11:22:34.575Z,79.20
2023-03-03T11:25:31.447Z,70.80
2023-03-03T11:28:21.060Z,72.10
2023-03-03T11:31:31.957Z,74.00
2023-03-03T11:34:25.523Z,72.70
2023-03-03T11:37:04.218Z,66.30
2023-03-03T11:39:33.692Z,69.80
2023-03-03T11:42:30.030Z,77.30
2023-03-03T11:45:06.521Z,74.50
2023-03-03T11:47:57.796Z,66.10
2023-03-03T11:50:29.055Z,63.20
2023-03-03T11:53:15.322Z,66.80
2023-03-03T11:55:49.894Z,59.60
2023-03-03T11:58:27.640Z,65.60
2023-03-03T12:01:17.010Z,68.50
2023-03-03T12:04:04.488Z,62.60
2023-03-03T12:06:44.768Z,62.20
2023-03-03T12:09:46.859Z,59.60
2023-03-03T12:12:18.873Z,53.00
2023-03-03T12:15:21.109Z,51.20
2023-03-03T12:18:27.090Z,53.40
2023-03-03T12:21:03.986Z,58.60
2023-03-03T12:23:42.066Z,49.20
2023-03-03T12:26:34.557Z,53.10
2023-03-03T12:29:11.993Z,54.50
2023-03-03T12:31:53.095Z,57.70
2023-03-03T12:34:38.964Z,55.90
2023-03-03T12:37:15.228Z,55.10
2023-03-03T12:40:05.118Z,55.50
2023-03-03T12:42:58.788Z,50.90
2023-03-03T12:45:26.780Z,61.30
2023-03-03T12:48:09.889Z,54.20
2023-03-03T12:50:56.137Z,52.90
2023-03-03T12:53:29.876Z,58.10
2023-03-03T12:56:15.990Z,46.00
2023-03-03T12:59:01.145Z,57.50
2023-03-03T13:01:48.752Z,56.30
2023-03-03T13:04:36.687Z,52.10
2023-03-03T13:07:04.924Z,54.80
2023-03-03T13:09:49.630Z,54.60
2023-03-03T13:12:38.084Z,59.60
2023-03-03T13:15:32.736Z,51.80
2023-03-03T13:18:13.496Z,48.80
2023-03-03T13:20:41.498Z,57.80
2023-03-03T13:23:38.323Z,49.10
2023-03-03T13:26:32.040Z,48.00
2023-03-03T13:29:03.290Z,51.40
2023-03-03T13:31:44.495Z,51.50
2023-03-03T13:34:27.735Z,43.90
2023-03-03T13:37:32.898Z,35.30
2023-03-03T13:40:16.352Z,46.30
2023-03-03T13:42:59.267Z,44.90
2023-03-03T13:45:35.117Z,48.20
2023-03-03T13:48:28.480Z,49.90
2023-03-03T13:54:07.536Z,54.70
2023-03-03T13:56:40.981Z,53.80
2023-03-03T13:59:27.392Z,49.90
2023-03-03T14:02:23.902Z,45.20
2023-03-03T14:05:02.361Z,45.30
2023-03-03T14:07:39.508Z,47.60
2023-03-03T14:10:25.450Z,47.00
2023-03-03T14:13:06.686Z,46.40
2023-03-03T14:15:46.260Z,43.90
2023-03-03T14:18:20.190Z,39.40
2023-03-03T14:20:52.186Z,46.00
2023-03-03T14:26:12.109Z,42.60
2023-03-03T14:28:44.181Z,40.40
2023-03-03T14:34:02.522Z,41.50
2023-03-03T14:36:42.375Z,40.60
2023-03-03T14:39:32.031Z,41.90
2023-03-03T14:42:01.985Z,40.00
2023-03-03T14:44:36.366Z,45.40
2023-03-03T14:47:17.301Z,42.50
2023-03-03T14:49:45.523Z,40.80
2023-03-03T14:52:16.461Z,48.80
2023-03-03T14:54:47.984Z,46.80
2023-03-03T14:57:21.550Z,40.40
2023-03-03T14:59:59.115Z,48.00
2023-03-03T15:02:40.731Z,42.00
2023-03-03T15:05:16.397Z,38.10
2023-03-03T15:07:45.604Z,45.90
2023-03-03T15:10:27.496Z,51.20
2023-03-03T15:12:55.619Z,45.70
2023-03-03T15:15:26.880Z,40.00
2023-03-03T15:18:04.322Z,35.10
2023-03-03T15:20:45.665Z,41.50
2023-03-03T15:23:44.668Z,43.20
2023-03-03T15:26:34.578Z,43.40
2023-03-03T15:29:15.727Z,49.70
2023-03-03T15:32:24.578Z,48.00
2023-03-03T15:35:06.438Z,43.70
2023-03-03T15:38:06.744Z,33.50
2023-03-03T15:40:34.786Z,41.50
2023-03-03T15:43:10.594Z,48.30
2023-03-03T15:46:03.556Z,48.30
2023-03-03T15:48:50.405Z,44.50
2023-03-03T15:52:01.018Z,42.80
2023-03-03T15:54:52.652Z,42.60
2023-03-03T15:57:46.224Z,42.20
2023-03-03T16:00:23.889Z,39.30
2023-03-03T16:03:10.823Z,49.70
2023-03-03T16:05:53.646Z,49.70
2023-03-03T16:09:03.515Z,49.70
2023-03-03T16:11:40.528Z,47.10
2023-03-03T16:14:30.366Z,45.40
2023-03-03T16:17:13.516Z,46.50
2023-03-03T16:19:54.166Z,44.90
2023-03-03T16:22:40.495Z,43.70
2023-03-03T16:25:27.241Z,44.30
2023-03-03T16:28:17.835Z,45.00
2023-03-03T16:30:51.892Z,46.40
2023-03-03T16:33:33.600Z,42.80
2023-03-03T16:36:25.982Z,48.00
2023-03-03T16:39:20.853Z,49.40
2023-03-03T16:42:00.363Z,43.60
2023-03-03T16:44:43.687Z,48.00
2023-03-03T16:47:17.621Z,50.20
2023-03-03T16:50:05.567Z,44.60
2023-03-03T16:53:12.223Z,48.30
2023-03-03T16:55:54.872Z,55.20
2023-03-03T16:58:44.955Z,49.40
2023-03-03T17:01:36.298Z,48.70
2023-03-03T17:04:17.888Z,55.30
2023-03-03T17:06:53.604Z,48.50
2023-03-03T17:09:33.279Z,51.20
2023-03-03T17:12:07.003Z,55.30
2023-03-03T17:14:50.119Z,49.40
2023-03-03T17:17:36.536Z,52.40
2023-03-03T17:20:32.371Z,48.60
2023-03-03T17:23:34.255Z,47.90
2023-03-03T17:26:12.161Z,56.90
2023-03-03T17:28:52.059Z,51.00
2023-03-03T17:31:33.497Z,55.10
2023-03-03T17:34:19.422Z,54.10
2023-03-03T17:37:02.452Z,55.70
2023-03-03T17:39:48.413Z,47.90
2023-03-03T17:42:34.360Z,54.50
2023-03-03T17:45:17.080Z,50.40
2023-03-03T17:47:57.270Z,47.80
2023-03-03T17:50:43.811Z,56.80
2023-03-03T17:53:30.262Z,51.90
2023-03-03T17:55:58.349Z,56.30
2023-03-03T17:58:50.964Z,61.30
2023-03-03T18:01:44.652Z,56.50
2023-03-03T18:04:40.936Z,49.50
2023-03-03T18:07:27.455Z,56.60
2023-03-03T18:10:36.821Z,54.30
2023-03-03T18:13:28.758Z,58.60
2023-03-03T18:16:34.142Z,44.70
2023-03-03T18:19:28.670Z,58.10
2023-03-03T18:22:11.702Z,57.30
2023-03-03T18:24:40.736Z,58.50
2023-03-03T18:27:24.163Z,69.40
2023-03-03T18:30:25.240Z,63.30
2023-03-03T18:32:56.440Z,65.90
2023-03-03T18:35:33.393Z,59.00
2023-03-03T18:38:16.910Z,68.30
2023-03-03T18:40:52.074Z,67.60
2023-03-03T18:43:45.200Z,59.60
2023-03-03T18:46:25.360Z,56.40
2023-03-03T18:48:57.669Z,69.50
2023-03-03T18:51:34.840Z,64.90
2023-03-03T18:54:31.009Z,65.00
2023-03-03T18:57:03.970Z,62.50
2023-03-03T18:59:35.165Z,62.00
2023-03-03T19:04:38.293Z,66.90
2023-03-03T19:07:17.649Z,63.60
2023-03-03T19:09:52.672Z,60.70
2023-03-03T19:12:49.693Z,68.20
2023-03-03T19:15:29.971Z,69.60
2023-03-03T19:18:16.601Z,69.90
2023-03-03T19:20:49.188Z,71.10
2023-03-03T19:23:24.980Z,70.50
2023-03-03T19:26:19.675Z,68.70
2023-03-03T19:28:55.535Z,67.20
2023-03-03T19:31:33.639Z,65.20
2023-03-03T19:34:12.993Z,67.00
2023-03-03T19:36:53.233Z,72.00
2023-03-03T19:39:24.012Z,63.90
2023-03-03T19:42:01.484Z,64.80
2023-03-03T19:44:56.680Z,72.80
2023-03-03T19:47:51.517Z,59.50
2023-03-03T19:50:19.337Z,70.70
2023-03-03T19:53:15.102Z,68.30
2023-03-03T19:55:46.252Z,65.50
2023-03-03T19:58:31.732Z,61.40
2023-03-03T20:01:24.654Z,63.00
2023-03-03T20:04:26.902Z,70.60
2023-03-03T20:07:22.645Z,62.70
2023-03-03T20:10:28.075Z,53.10
2023-03-03T20:13:13.979Z,54.80
2023-03-03T20:15:57.828Z,66.60
2023-03-03T20:18:41.560Z,58.30
2023-03-03T20:21:18.379Z,78.00
2023-03-03T20:24:14.116Z,59.30
2023-03-03T20:26:50.936Z,58.20
2023-03-03T20:29:47.812Z,61.10
2023-03-03T20:32:40.804Z,59.00
2023-03-03T20:36:03.477Z,63.00
2023-03-03T20:38:56.474Z,60.50
2023-03-03T20:41:38.614Z,60.20
2023-03-03T20:46:46.139Z,59.00
2023-03-03T20:49:42.016Z,65.60
2023-03-03T20:52:53.370Z,69.20
2023-03-03T20:55:33.933Z,66.50
2023-03-03T20:58:36.547Z,72.60
2023-03-03T21:01:12.799Z,60.80
2023-03-03T21:03:44.926Z,68.80
2023-03-03T21:06:18.109Z,52.90
2023-03-03T21:08:56.961Z,48.90
2023-03-03T21:11:42.760Z,69.40
2023-03-03T21:14:23.304Z,59.60
2023-03-03T21:16:53.398Z,75.00
2023-03-03T21:19:32.725Z,64.50
2023-03-03T21:22:02.526Z,58.40
2023-03-03T21:24:53.938Z,65.20
2023-03-03T21:27:33.724Z,59.50
2023-03-03T21:30:08.054Z,62.90
2023-03-03T21:32:39.274Z,57.60
2023-03-03T21:35:19.525Z,63.30
2023-03-03T21:37:52.980Z,62.40
2023-03-03T21:40:25.430Z,60.80
2023-03-03T21:42:56.573Z,64.40
2023-03-03T21:45:25.270Z,59.30
2023-03-03T21:47:59.769Z,64.90
2023-03-03T21:50:32.818Z,62.00
2023-03-03T21:53:00.874Z,61.50
2023-03-03T21:55:28.774Z,61.20
2023-03-03T21:57:56.754Z,58.80
2023-03-03T22:00:24.988Z,60.80
2023-03-03T22:02:55.282Z,69.80
2023-03-03T22:05:23.560Z,59.30
2023-03-03T22:07:51.664Z,63.30
2023-03-03T22:10:19.740Z,58.40
2023-03-03T22:12:47.734Z,62.40
2023-03-03T22:15:15.840Z,61.20
2023-03-03T22:17:43.938Z,55.20
2023-03-03T22:20:14.765Z,51.20
2023-03-03T22:22:43.275Z,55.40
2023-03-03T22:25:11.319Z,58.10
2023-03-03T22:27:39.399Z,60.10
2023-03-03T22:30:08.268Z,57.40
2023-03-03T22:32:36.225Z,49.90
2023-03-03T22:35:04.526Z,50.20
2023-03-03T22:37:32.653Z,55.70
2023-03-03T22:40:01.453Z,47.00
2023-03-03T22:42:29.651Z,52.90
2023-03-03T22:44:57.633Z,48.30
2023-03-03T22:47:25.606Z,51.90
2023-03-03T22:49:53.570Z,52.30
2023-03-03T22:52:21.601Z,52.40
2023-03-03T22:54:49.605Z,45.40
2023-03-03T22:57:17.589Z,46.50
2023-03-03T22:59:45.624Z,48.70
2023-03-03T23:02:13.678Z,42.90
2023-03-03T23:04:42.025Z,50.30
2023-03-03T23:07:10.016Z,47.00
2023-03-03T23:09:38.190Z,39.50
2023-03-03T23:12:06.470Z,36.70
2023-03-03T23:14:34.565Z,45.90
2023-03-03T23:17:02.723Z,37.40
2023-03-03T23:19:30.724Z,50.60
2023-03-03T23:21:59.215Z,52.20
2023-03-03T23:24:27.506Z,42.50
2023-03-03T23:26:58.173Z,37.90
2023-03-03T23:29:26.174Z,45.30
2023-03-03T23:31:54.324Z,39.20
2023-03-03T23:34:22.711Z,38.70
2023-03-03T23:36:50.766Z,49.10
2023-03-03T23:39:18.971Z,38.30
2023-03-03T23:41:47.018Z,41.00
2023-03-03T23:44:15.213Z,46.70
2023-03-03T23:46:43.480Z,38.80
2023-03-03T23:49:11.478Z,37.10
2023-03-03T23:51:39.507Z,43.20
2023-03-03T23:54:07.535Z,43.50
2023-03-03T23:56:35.535Z,38.80
2023-03-03T23:59:03.689Z,47.60
